Time;durP1;ratioP1;P1;durP2;ratioP2;P2;SDS_P1;SDS_P2;PMS_P1;PMS_P2;Temp;Humidity;BMP_temperature;BMP_pressure;BME280_temperature;BME280_humidity;BME280_pressure;Samples;Min_cycle;Max_cycle;Signal;HPM_P1;HPM_P2
2024/04/02 00:00:53;;;;;;;2.10;0.60;;;;;;;13.31;97.41;97249.73;109492;1252;59882;-73
2024/04/02 00:03:43;;;;;;;1.20;0.50;;;;;;;13.28;98.34;97253.27;109465;1252;67129;-72
2024/04/02 00:06:09;;;;;;;2.20;0.80;;;;;;;13.25;98.85;97250.02;109523;1253;60053;-72
2024/04/02 00:08:37;;;;;;;1.40;0.60;;;;;;;13.22;99.56;97242.67;109511;1252;59876;-73
2024/04/02 00:11:05;;;;;;;0.90;0.40;;;;;;;13.19;100.00;97237.11;109493;1253;60035;-73
2024/04/02 00:13:34;;;;;;;0.60;0.60;;;;;;;13.15;100.00;97229.79;109477;1252;59866;-73
2024/04/02 00:16:01;;;;;;;1.80;1.00;;;;;;;13.14;100.00;97231.55;109525;1253;67778;-72
2024/04/02 00:18:29;;;;;;;0.70;0.60;;;;;;;13.12;100.00;97228.74;109522;1252;59922;-72
2024/04/02 00:21:00;;;;;;;1.00;0.70;;;;;;;13.09;100.00;97219.77;109336;1253;63743;-73
2024/04/02 00:23:27;;;;;;;1.20;0.60;;;;;;;13.09;100.00;97210.88;109081;1252;59841;-72
2024/04/02 00:26:01;;;;;;;1.20;0.60;;;;;;;13.09;100.00;97205.45;109542;1252;59890;-72
2024/04/02 00:28:28;;;;;;;0.60;0.60;;;;;;;13.07;100.00;97211.48;109501;1253;66965;-73
2024/04/02 00:31:02;;;;;;;0.30;0.30;;;;;;;13.04;100.00;97214.76;109502;1253;59716;-73
2024/04/02 00:33:29;;;;;;;1.10;0.80;;;;;;;13.01;100.00;97214.05;109475;1252;62885;-73
2024/04/02 00:36:03;;;;;;;0.60;0.60;;;;;;;12.95;100.00;97217.73;109445;1253;60057;-74
2024/04/02 00:38:30;;;;;;;0.70;0.60;;;;;;;12.87;100.00;97224.39;109471;1252;59907;-72
2024/04/02 00:40:57;;;;;;;1.40;0.70;;;;;;;12.77;100.00;97231.86;109467;1253;74310;-74
2024/04/02 00:43:24;;;;;;;1.20;1.10;;;;;;;12.69;100.00;97229.46;109516;1252;60080;-73
2024/04/02 00:45:51;;;;;;;1.40;0.80;;;;;;;12.62;100.00;97228.48;109357;1253;64116;-73
2024/04/02 00:48:18;;;;;;;0.80;0.80;;;;;;;12.51;100.00;97225.41;109469;1252;60024;-72
2024/04/02 00:50:47;;;;;;;1.40;0.90;;;;;;;12.42;100.00;97221.02;109453;1252;59794;-72
2024/04/02 00:53:14;;;;;;;2.80;1.20;;;;;;;12.30;100.00;97221.92;109499;1252;68085;-73
2024/04/02 00:55:41;;;;;;;2.10;1.20;;;;;;;12.21;100.00;97221.05;109490;1253;59858;-72
2024/04/02 00:58:08;;;;;;;2.00;1.20;;;;;;;12.13;100.00;97223.50;109515;1253;63769;-73
2024/04/02 01:00:36;;;;;;;1.30;1.20;;;;;;;12.02;100.00;97220.30;109190;1253;59836;-72
2024/04/02 01:03:03;;;;;;;1.50;1.00;;;;;;;11.92;100.00;97213.52;109446;1253;60039;-73
2024/04/02 01:05:31;;;;;;;1.00;0.90;;;;;;;11.83;100.00;97203.50;109518;1253;65587;-73
2024/04/02 01:08:00;;;;;;;0.90;0.90;;;;;;;11.77;100.00;97198.77;109557;1253;59805;-73
2024/04/02 01:10:31;;;;;;;0.50;0.50;;;;;;;11.74;100.00;97205.45;109502;1252;64168;-73
2024/04/02 01:12:59;;;;;;;1.20;0.40;;;;;;;11.69;100.00;97215.61;109446;1253;60049;-73
2024/04/02 01:15:26;;;;;;;1.90;0.70;;;;;;;11.61;100.00;97224.25;109459;1252;59680;-72
2024/04/02 01:17:54;;;;;;;0.70;0.60;;;;;;;11.51;100.00;97228.29;109513;1252;66838;-72
2024/04/02 01:20:21;;;;;;;0.90;0.80;;;;;;;11.39;100.00;97235.27;109514;1252;60017;-73
2024/04/02 01:22:47;;;;;;;2.50;1.70;;;;;;;11.30;100.00;97242.54;109503;1253;62977;-71
2024/04/02 01:25:17;;;;;;;1.60;1.50;;;;;;;11.23;100.00;97246.67;109159;1253;59813;-72
2024/04/02 01:27:44;;;;;;;2.30;1.70;;;;;;;11.14;100.00;97252.70;109507;1253;59909;-71
2024/04/02 01:30:10;;;;;;;1.90;1.30;;;;;;;11.06;100.00;97254.75;109510;1253;59831;-72
2024/04/02 01:32:36;;;;;;;1.50;1.40;;;;;;;10.98;100.00;97257.94;109455;1252;59752;-72
2024/04/02 01:35:03;;;;;;;2.60;2.50;;;;;;;10.91;100.00;97256.27;109488;1253;59926;-72
2024/04/02 01:37:29;;;;;;;5.80;5.30;;;;;;;10.89;100.00;97256.71;109190;1253;59824;-72
2024/04/02 01:39:56;;;;;;;4.80;4.50;;;;;;;10.85;100.00;97252.48;109491;1253;59846;-72
2024/04/02 01:42:22;;;;;;;3.80;3.50;;;;;;;10.79;100.00;97253.20;109535;1253;59895;-72
2024/04/02 01:44:48;;;;;;;2.10;1.90;;;;;;;10.74;100.00;97248.16;109505;1252;60323;-72
2024/04/02 01:47:14;;;;;;;2.00;1.80;;;;;;;10.68;100.00;97242.84;109355;1253;59857;-73
2024/04/02 01:49:42;;;;;;;2.50;1.50;;;;;;;10.60;100.00;97242.91;109482;1253;59872;-72
2024/04/02 01:52:08;;;;;;;1.50;1.00;;;;;;;10.55;100.00;97242.67;109527;1253;60183;-72
2024/04/02 01:54:34;;;;;;;1.40;1.30;;;;;;;10.52;100.00;97241.56;109199;1253;59884;-72
2024/04/02 01:57:01;;;;;;;1.30;1.20;;;;;;;10.50;100.00;97237.86;109515;1253;60007;-71
2024/04/02 01:59:27;;;;;;;1.20;1.20;;;;;;;10.47;100.00;97234.27;109506;1253;59940;-72
2024/04/02 02:01:53;;;;;;;1.10;1.00;;;;;;;10.43;100.00;97236.97;109474;1253;59912;-71
2024/04/02 02:04:20;;;;;;;0.80;0.80;;;;;;;10.41;100.00;97241.54;109528;1253;59883;-72
2024/04/02 02:06:46;;;;;;;2.10;1.00;;;;;;;10.40;100.00;97248.19;109512;1253;59830;-71
2024/04/02 02:09:12;;;;;;;0.80;0.80;;;;;;;10.40;100.00;97253.36;109538;1253;60181;-71
2024/04/02 02:11:39;;;;;;;0.80;0.80;;;;;;;10.38;100.00;97252.52;109472;1253;59899;-72
2024/04/02 02:14:05;;;;;;;0.60;0.60;;;;;;;10.36;100.00;97253.97;109490;1252;59856;-71
2024/04/02 02:16:31;;;;;;;0.80;0.80;;;;;;;10.31;100.00;97257.42;109508;1252;59862;-71
2024/04/02 02:18:58;;;;;;;1.00;0.90;;;;;;;10.29;100.00;97267.17;109452;1252;60119;-70
2024/04/02 02:21:24;;;;;;;2.00;0.90;;;;;;;10.29;100.00;97277.48;109468;1253;59874;-70
2024/04/02 02:23:50;;;;;;;1.70;1.10;;;;;;;10.26;100.00;97282.86;109515;1253;59820;-71
2024/04/02 02:26:18;;;;;;;1.30;1.20;;;;;;;10.23;100.00;97286.67;109485;1252;60489;-71
2024/04/02 02:28:45;;;;;;;1.80;1.10;;;;;;;10.20;100.00;97287.87;109503;1252;60008;-71
2024/04/02 02:31:11;;;;;;;1.10;1.10;;;;;;;10.17;100.00;97287.80;109466;1252;60187;-70
2024/04/02 02:33:37;;;;;;;1.30;1.20;;;;;;;10.14;100.00;97287.18;109527;1253;59838;-70
2024/04/02 02:36:04;;;;;;;1.40;1.30;;;;;;;10.12;100.00;97288.98;109488;1252;59843;-71
2024/04/02 02:38:31;;;;;;;1.60;1.50;;;;;;;10.09;100.00;97290.65;109494;1252;59862;-71
2024/04/02 02:41:01;;;;;;;1.00;0.90;;;;;;;10.08;100.00;97286.84;109513;1252;59828;-72
2024/04/02 02:43:27;;;;;;;3.50;1.10;;;;;;;10.08;100.00;97280.78;109469;1253;66921;-71
2024/04/02 02:45:55;;;;;;;1.10;0.70;;;;;;;10.05;100.00;97279.99;109510;1253;60084;-73
2024/04/02 02:48:22;;;;;;;0.80;0.80;;;;;;;10.02;100.00;97278.70;109457;1253;62532;-71
2024/04/02 02:50:48;;;;;;;1.10;1.10;;;;;;;10.01;100.00;97274.17;109477;1253;59840;-71
2024/04/02 02:53:14;;;;;;;1.10;1.00;;;;;;;10.00;100.00;97273.22;109156;1252;60007;-71
2024/04/02 02:55:41;;;;;;;0.70;0.70;;;;;;;9.99;100.00;97272.44;109489;1253;59846;-72
2024/04/02 02:58:07;;;;;;;1.70;1.00;;;;;;;9.97;100.00;97274.73;109522;1252;59853;-72
2024/04/02 03:00:38;;;;;;;0.90;0.90;;;;;;;9.96;100.00;97275.39;109511;1252;59915;-72
2024/04/02 03:03:05;;;;;;;0.90;0.90;;;;;;;9.95;100.00;97275.83;109444;1252;59796;-72
2024/04/02 03:05:31;;;;;;;0.90;0.90;;;;;;;9.93;100.00;97279.95;109509;1253;59768;-73
2024/04/02 03:07:58;;;;;;;0.70;0.70;;;;;;;9.88;100.00;97281.52;109473;1253;59909;-72
2024/04/02 03:10:24;;;;;;;1.10;0.90;;;;;;;9.87;100.00;97281.50;109474;1253;59957;-72
2024/04/02 03:12:50;;;;;;;1.30;0.80;;;;;;;9.85;100.00;97281.48;109268;1252;60389;-71
2024/04/02 03:15:17;;;;;;;1.50;0.80;;;;;;;9.84;100.00;97284.62;109442;1252;60030;-72
2024/04/02 03:17:43;;;;;;;1.40;0.90;;;;;;;9.81;100.00;97288.61;109511;1253;60026;-71
2024/04/02 03:20:11;;;;;;;1.00;1.00;;;;;;;9.78;100.00;97289.22;109466;1252;60119;-72
2024/04/02 03:22:37;;;;;;;1.00;0.80;;;;;;;9.75;100.00;97283.65;109500;1253;68857;-72
2024/04/02 03:25:04;;;;;;;0.80;0.80;;;;;;;9.72;100.00;97279.50;109441;1253;59945;-73
2024/04/02 03:27:32;;;;;;;0.80;0.80;;;;;;;9.67;100.00;97275.63;109487;1252;59834;-72
2024/04/02 03:29:58;;;;;;;1.00;0.90;;;;;;;9.64;100.00;97274.20;109394;1252;59886;-72
2024/04/02 03:32:24;;;;;;;1.30;0.90;;;;;;;9.61;100.00;97270.52;109521;1253;59793;-71
2024/04/02 03:34:51;;;;;;;1.20;1.00;;;;;;;9.59;100.00;97264.15;109494;1252;60119;-73
2024/04/02 03:37:17;;;;;;;0.90;0.90;;;;;;;9.59;100.00;97261.71;109458;1253;59835;-73
2024/04/02 03:39:43;;;;;;;0.80;0.70;;;;;;;9.57;100.00;97254.42;109455;1253;59804;-72
2024/04/02 03:42:09;;;;;;;0.90;0.90;;;;;;;9.56;100.00;97252.42;109490;1253;60837;-71
2024/04/02 03:44:36;;;;;;;0.90;0.90;;;;;;;9.51;100.00;97258.64;109500;1252;59804;-71
2024/04/02 03:47:02;;;;;;;1.20;1.10;;;;;;;9.49;100.00;97264.42;109506;1253;59913;-73
2024/04/02 03:49:29;;;;;;;1.40;1.00;;;;;;;9.45;100.00;97272.70;109470;1253;59847;-73
2024/04/02 03:51:56;;;;;;;1.20;0.80;;;;;;;9.42;100.00;97270.49;109505;1253;59832;-72
2024/04/02 03:54:22;;;;;;;1.20;1.20;;;;;;;9.40;100.00;97271.56;109510;1253;59954;-72
2024/04/02 03:56:48;;;;;;;1.40;1.00;;;;;;;9.39;100.00;97266.16;109475;1252;59798;-72
2024/04/02 03:59:14;;;;;;;1.00;0.90;;;;;;;9.38;100.00;97265.50;109518;1253;59905;-72
2024/04/02 04:01:41;;;;;;;1.00;1.00;;;;;;;9.37;100.00;97270.60;109480;1252;60174;-71
2024/04/02 04:04:07;;;;;;;1.40;1.20;;;;;;;9.35;100.00;97278.23;109471;1252;59758;-72
2024/04/02 04:06:33;;;;;;;1.70;1.00;;;;;;;9.33;100.00;97288.63;109492;1253;60076;-72
2024/04/02 04:09:00;;;;;;;1.20;1.20;;;;;;;9.32;100.00;97294.79;109212;1253;59982;-72
2024/04/02 04:11:26;;;;;;;2.10;1.90;;;;;;;9.30;100.00;97297.76;109489;1253;59753;-71
2024/04/02 04:13:53;;;;;;;2.60;2.40;;;;;;;9.29;100.00;97294.30;109470;1252;59772;-73
2024/04/02 04:16:19;;;;;;;2.60;2.40;;;;;;;9.28;100.00;97288.96;109451;1253;59976;-71
2024/04/02 04:18:45;;;;;;;2.10;1.90;;;;;;;9.27;100.00;97291.36;109519;1253;60080;-71
2024/04/02 04:21:13;;;;;;;2.20;1.90;;;;;;;9.23;100.00;97297.34;109495;1252;60121;-71
2024/04/02 04:23:39;;;;;;;2.40;1.40;;;;;;;9.21;100.00;97309.25;109510;1252;59889;-72
2024/04/02 04:26:06;;;;;;;2.10;1.20;;;;;;;9.19;100.00;97317.23;109444;1252;59831;-70
2024/04/02 04:28:33;;;;;;;1.20;1.10;;;;;;;9.18;100.00;97320.83;109484;1252;59821;-72
2024/04/02 04:31:03;;;;;;;1.50;1.20;;;;;;;9.19;100.00;97326.58;109512;1252;59937;-71
2024/04/02 04:33:31;;;;;;;1.40;1.30;;;;;;;9.19;100.00;97327.77;109480;1252;65425;-72
2024/04/02 04:35:58;;;;;;;1.80;1.70;;;;;;;9.19;100.00;97328.71;109468;1253;59832;-72
2024/04/02 04:38:25;;;;;;;2.00;1.40;;;;;;;9.18;100.00;97335.88;109457;1253;59835;-71
2024/04/02 04:40:52;;;;;;;2.30;1.20;;;;;;;9.17;100.00;97335.07;109335;1252;59883;-71
2024/04/02 04:43:19;;;;;;;2.20;1.70;;;;;;;9.17;100.00;97334.76;109421;1253;59928;-71
2024/04/02 04:46:00;;;;;;;2.10;1.70;;;;;;;9.18;100.00;97334.67;109477;1254;68064;-71
2024/04/02 04:48:27;;;;;;;2.50;1.80;;;;;;;9.18;100.00;97329.52;109505;1253;60084;-70
2024/04/02 04:50:55;;;;;;;2.60;2.00;;;;;;;9.18;100.00;97325.77;109474;1252;64091;-70
2024/04/02 04:53:21;;;;;;;1.80;1.70;;;;;;;9.18;100.00;97325.55;109434;1253;60192;-70
2024/04/02 04:55:48;;;;;;;2.30;1.90;;;;;;;9.18;100.00;97322.20;109514;1252;59910;-70
2024/04/02 04:58:14;;;;;;;2.20;1.70;;;;;;;9.18;100.00;97325.95;109451;1252;60058;-68
2024/04/02 05:00:40;;;;;;;2.40;2.10;;;;;;;9.16;100.00;97329.48;109502;1253;59872;-70
2024/04/02 05:03:06;;;;;;;2.60;2.30;;;;;;;9.13;100.00;97329.38;109473;1253;59988;-80
2024/04/02 05:05:33;;;;;;;3.70;3.30;;;;;;;9.10;100.00;97328.47;109451;1252;59828;-70
2024/04/02 05:08:18;;;;;;;2.70;2.50;;;;;;;9.06;100.00;97322.60;109496;1253;59819;-69
2024/04/02 05:10:45;;;;;;;2.90;2.70;;;;;;;8.99;100.00;97327.65;109469;1252;65445;-69
2024/04/02 05:13:12;;;;;;;2.70;2.50;;;;;;;8.93;100.00;97330.80;109452;1254;59854;-70
2024/04/02 05:15:38;;;;;;;2.60;2.40;;;;;;;8.91;100.00;97337.56;109493;1253;62828;-69
2024/04/02 05:18:07;;;;;;;4.00;2.50;;;;;;;8.90;100.00;97343.45;109463;1252;59795;-74
2024/04/02 05:20:34;;;;;;;3.40;3.00;;;;;;;8.88;100.00;97354.58;109383;1253;59999;-73
2024/04/02 05:23:01;;;;;;;3.30;2.70;;;;;;;8.86;100.00;97356.73;109447;1252;66702;-77
2024/04/02 05:25:27;;;;;;;3.50;3.20;;;;;;;8.84;100.00;97359.00;109395;1256;60107;-73
2024/04/02 05:27:53;;;;;;;3.70;3.20;;;;;;;8.83;100.00;97361.08;109050;1253;135046;-78
2024/04/02 05:30:20;;;;;;;3.40;3.10;;;;;;;8.80;100.00;97359.07;109374;1252;60044;-75
2024/04/02 05:32:47;;;;;;;3.50;3.20;;;;;;;8.74;100.00;97362.52;109435;1253;59859;-75
2024/04/02 05:35:13;;;;;;;3.70;3.40;;;;;;;8.70;100.00;97362.40;109480;1253;59791;-75
2024/04/02 05:37:39;;;;;;;4.90;4.00;;;;;;;8.65;100.00;97366.67;109457;1253;60020;-76
2024/04/02 05:40:07;;;;;;;4.00;3.70;;;;;;;8.64;100.00;97368.42;109468;1253;59841;-76
2024/04/02 05:42:34;;;;;;;4.20;3.80;;;;;;;8.61;100.00;97370.90;109381;1252;59795;-77
2024/04/02 05:45:01;;;;;;;4.60;4.20;;;;;;;8.59;100.00;97372.89;109429;1253;59985;-76
2024/04/02 05:47:27;;;;;;;4.00;3.60;;;;;;;8.59;100.00;97378.90;109476;1252;66683;-81
2024/04/02 05:49:54;;;;;;;4.70;4.30;;;;;;;8.56;100.00;97380.48;109497;1253;59774;-85
2024/04/02 05:52:20;;;;;;;4.20;3.90;;;;;;;8.53;100.00;97380.75;109435;1253;59930;-77
2024/04/02 05:54:46;;;;;;;4.20;3.90;;;;;;;8.52;100.00;97380.02;109221;1253;60169;-77
2024/04/02 05:57:15;;;;;;;4.40;4.00;;;;;;;8.50;100.00;97379.77;109468;1252;60694;-80
2024/04/02 05:59:45;;;;;;;6.00;4.40;;;;;;;8.49;100.00;97383.45;109512;1253;66546;-81
2024/04/02 06:02:11;;;;;;;5.20;4.70;;;;;;;8.50;100.00;97382.27;109455;1253;59862;-80
2024/04/02 06:04:37;;;;;;;4.70;4.30;;;;;;;8.51;100.00;97385.71;109160;1253;59868;-77
2024/04/02 06:07:04;;;;;;;5.00;4.60;;;;;;;8.53;100.00;97391.77;109452;1253;59750;-82
2024/04/02 06:09:30;;;;;;;3.60;3.30;;;;;;;8.53;100.00;97388.91;109519;1252;59988;-71
2024/04/02 06:11:56;;;;;;;3.40;3.10;;;;;;;8.55;100.00;97394.98;109201;1252;59909;-70
2024/04/02 06:14:23;;;;;;;3.90;3.60;;;;;;;8.55;100.00;97394.05;109477;1253;60025;-72
2024/04/02 06:16:49;;;;;;;4.40;3.90;;;;;;;8.56;100.00;97399.69;109454;1252;60131;-72
2024/04/02 06:19:15;;;;;;;3.40;3.10;;;;;;;8.56;100.00;97403.69;109478;1253;59836;-71
2024/04/02 06:21:44;;;;;;;4.40;3.70;;;;;;;8.57;100.00;97407.52;109470;1253;59999;-72
2024/04/02 06:24:10;;;;;;;4.20;3.90;;;;;;;8.57;100.00;97411.06;109467;1253;65439;-72
2024/04/02 06:26:37;;;;;;;4.70;4.30;;;;;;;8.55;100.00;97416.89;109386;1253;59885;-72
2024/04/02 06:29:03;;;;;;;4.70;4.30;;;;;;;8.54;100.00;97423.54;109471;1252;64348;-72
2024/04/02 06:31:30;;;;;;;4.40;4.10;;;;;;;8.54;100.00;97437.73;109461;1253;60097;-71
2024/04/02 06:33:56;;;;;;;4.50;4.10;;;;;;;8.51;100.00;97447.52;109451;1252;59766;-71
2024/04/02 06:36:23;;;;;;;3.70;3.40;;;;;;;8.49;100.00;97448.59;109456;1253;60084;-71
2024/04/02 06:38:50;;;;;;;4.70;4.30;;;;;;;8.48;100.00;97456.12;109447;1253;59832;-73
2024/04/02 06:41:16;;;;;;;4.40;4.00;;;;;;;8.47;100.00;97468.05;109362;1252;62853;-72
2024/04/02 06:43:42;;;;;;;5.00;4.60;;;;;;;8.46;100.00;97470.59;109445;1253;60878;-73
2024/04/02 06:46:09;;;;;;;4.70;4.30;;;;;;;8.44;100.00;97478.92;109463;1253;59656;-71
2024/04/02 06:48:35;;;;;;;5.30;4.80;;;;;;;8.43;100.00;97487.34;109487;1252;60224;-71
2024/04/02 06:51:03;;;;;;;5.30;4.80;;;;;;;8.39;100.00;97488.30;109472;1253;60768;-71
2024/04/02 06:53:33;;;;;;;4.80;4.40;;;;;;;8.37;100.00;97496.08;108886;1253;62921;-74
2024/04/02 06:56:00;;;;;;;5.90;4.60;;;;;;;8.35;100.00;97498.89;109481;1252;59761;-70
2024/04/02 06:58:28;;;;;;;4.10;3.70;;;;;;;8.33;100.00;97503.67;109388;1252;60078;-72
2024/04/02 07:00:54;;;;;;;4.50;4.20;;;;;;;8.31;100.00;97501.34;109470;1252;65520;-71
2024/04/02 07:03:22;;;;;;;5.40;3.90;;;;;;;8.28;100.00;97500.19;109470;1253;59812;-71
2024/04/02 07:05:51;;;;;;;4.10;3.80;;;;;;;8.25;100.00;97503.79;109352;1252;63741;-71
2024/04/02 07:08:18;;;;;;;3.70;3.40;;;;;;;8.21;100.00;97506.38;109456;1256;60226;-71
2024/04/02 07:10:45;;;;;;;4.50;4.00;;;;;;;8.20;100.00;97507.93;109360;1253;59873;-71
2024/04/02 07:13:12;;;;;;;4.10;3.70;;;;;;;8.20;100.00;97512.86;109462;1253;66692;-70
2024/04/02 07:15:41;;;;;;;4.60;4.20;;;;;;;8.22;100.00;97521.88;109489;1252;59856;-71
2024/04/02 07:18:08;;;;;;;5.60;4.40;;;;;;;8.26;100.00;97526.48;109148;1253;63991;-72
2024/04/02 07:20:34;;;;;;;4.50;3.70;;;;;;;8.28;100.00;97533.75;109473;1252;59790;-71
2024/04/02 07:23:01;;;;;;;3.80;3.50;;;;;;;8.29;100.00;97535.83;109504;1252;59838;-72
2024/04/02 07:25:27;;;;;;;3.40;3.10;;;;;;;8.30;100.00;97536.42;109550;1253;59804;-70
2024/04/02 07:27:54;;;;;;;3.90;3.40;;;;;;;8.30;100.00;97533.80;109502;1253;60243;-71
2024/04/02 07:30:20;;;;;;;3.60;3.20;;;;;;;8.28;100.00;97539.61;109509;1252;59873;-72
2024/04/02 07:32:47;;;;;;;3.30;3.00;;;;;;;8.25;100.00;97539.52;109440;1252;59781;-72
2024/04/02 07:35:14;;;;;;;3.30;3.00;;;;;;;8.24;100.00;97545.77;109474;1252;59838;-73
2024/04/02 07:37:41;;;;;;;4.80;3.70;;;;;;;8.23;100.00;97552.76;109501;1252;67676;-72
2024/04/02 07:40:08;;;;;;;3.80;3.50;;;;;;;8.18;100.00;97557.23;109502;1253;60884;-72
2024/04/02 07:42:34;;;;;;;4.40;3.70;;;;;;;8.17;100.00;97560.16;109478;1253;63142;-72
2024/04/02 07:45:01;;;;;;;4.70;3.30;;;;;;;8.18;100.00;97567.88;109470;1253;59809;-70
2024/04/02 07:47:27;;;;;;;4.50;3.80;;;;;;;8.19;100.00;97574.87;109438;1252;60259;-72
2024/04/02 07:49:53;;;;;;;4.80;3.70;;;;;;;8.20;100.00;97579.16;109157;1253;59835;-72
2024/04/02 07:52:20;;;;;;;4.90;3.80;;;;;;;8.23;100.00;97586.75;109532;1253;59811;-72
2024/04/02 07:54:47;;;;;;;5.00;3.60;;;;;;;8.23;100.00;97593.49;109371;1253;59869;-72
2024/04/02 07:57:13;;;;;;;3.60;3.30;;;;;;;8.25;100.00;97593.17;109502;1253;59773;-79
2024/04/02 07:59:39;;;;;;;4.40;2.70;;;;;;;8.26;100.00;97592.84;109501;1253;59882;-73
2024/04/02 08:02:05;;;;;;;5.90;3.50;;;;;;;8.30;100.00;97589.71;109513;1253;59871;-77
2024/04/02 08:04:32;;;;;;;3.20;2.90;;;;;;;8.36;100.00;97588.37;109505;1253;59862;-76
2024/04/02 08:06:58;;;;;;;4.50;3.30;;;;;;;8.43;100.00;97592.81;109482;1252;60808;-76
2024/04/02 08:09:25;;;;;;;3.20;2.80;;;;;;;8.48;100.00;97596.29;109484;1252;59813;-76
2024/04/02 08:11:51;;;;;;;4.30;3.10;;;;;;;8.52;100.00;97595.60;109519;1253;59864;-80
2024/04/02 08:14:21;;;;;;;3.80;2.90;;;;;;;8.58;100.00;97598.98;109514;1253;59929;-79
2024/04/02 08:16:47;;;;;;;3.70;3.30;;;;;;;8.65;100.00;97599.64;109519;1253;60361;-76
2024/04/02 08:19:14;;;;;;;3.80;3.20;;;;;;;8.73;100.00;97602.17;109437;1252;59777;-77
2024/04/02 08:21:40;;;;;;;4.90;3.60;;;;;;;8.79;100.00;97604.34;109483;1252;60090;-75
2024/04/02 08:24:06;;;;;;;5.00;4.30;;;;;;;8.84;100.00;97607.88;109405;1253;59874;-76
2024/04/02 08:26:33;;;;;;;6.10;5.50;;;;;;;8.88;100.00;97608.95;109476;1253;59776;-79
2024/04/02 08:28:59;;;;;;;7.00;6.00;;;;;;;8.91;100.00;97613.28;109497;1253;59928;-79
2024/04/02 08:31:25;;;;;;;5.00;4.50;;;;;;;8.94;100.00;97613.92;109452;1252;59848;-77
2024/04/02 08:33:52;;;;;;;3.70;3.40;;;;;;;9.01;100.00;97617.48;109508;1253;59846;-76
2024/04/02 08:36:18;;;;;;;3.60;3.30;;;;;;;9.08;100.00;97623.30;109550;1253;59768;-79
2024/04/02 08:38:44;;;;;;;4.20;3.80;;;;;;;9.09;100.00;97626.91;109506;1253;60125;-80
2024/04/02 08:41:12;;;;;;;3.70;3.10;;;;;;;9.15;100.00;97627.59;109529;1252;60751;-79
2024/04/02 08:43:43;;;;;;;4.40;3.90;;;;;;;9.25;100.00;97636.23;109505;1253;59835;-77
2024/04/02 08:46:10;;;;;;;5.40;3.70;;;;;;;9.33;100.00;97637.44;109485;1253;59822;-78
2024/04/02 08:48:36;;;;;;;5.50;4.20;;;;;;;9.38;100.00;97645.39;109481;1252;60123;-78
2024/04/02 08:51:05;;;;;;;6.20;5.20;;;;;;;9.39;100.00;97648.65;109489;1253;66859;-75
2024/04/02 08:53:34;;;;;;;6.00;5.10;;;;;;;9.38;100.00;97650.49;109454;1254;60131;-75
2024/04/02 08:56:02;;;;;;;6.70;6.10;;;;;;;9.43;100.00;97653.13;109481;1252;63779;-77
2024/04/02 08:58:29;;;;;;;5.50;5.00;;;;;;;9.43;100.00;97656.99;109521;1253;59795;-79
2024/04/02 09:00:56;;;;;;;7.30;6.20;;;;;;;9.43;100.00;97662.14;109377;1252;59743;-76
2024/04/02 09:03:23;;;;;;;8.60;7.80;;;;;;;9.39;100.00;97663.70;109528;1253;66869;-76
2024/04/02 09:05:50;;;;;;;11.00;9.90;;;;;;;9.39;100.00;97663.87;109451;1253;59875;-75
2024/04/02 09:08:16;;;;;;;9.60;8.60;;;;;;;9.44;100.00;97660.81;109445;1253;59964;-76
2024/04/02 09:10:42;;;;;;;8.70;7.80;;;;;;;9.49;100.00;97662.35;109344;1253;60032;-79
2024/04/02 09:13:09;;;;;;;9.60;8.50;;;;;;;9.57;100.00;97660.29;109524;1253;59832;-77
2024/04/02 09:15:35;;;;;;;8.00;7.30;;;;;;;9.62;100.00;97663.08;109484;1253;59770;-78
2024/04/02 09:18:02;;;;;;;8.60;7.80;;;;;;;9.69;100.00;97664.27;109520;1253;59907;-78
2024/04/02 09:20:33;;;;;;;8.80;7.90;;;;;;;9.79;100.00;97661.60;109467;1252;59852;-78
2024/04/02 09:23:00;;;;;;;8.20;7.40;;;;;;;9.89;100.00;97658.27;109429;1253;59772;-78
2024/04/02 09:25:27;;;;;;;8.30;7.20;;;;;;;9.99;100.00;97660.95;109446;1253;59811;-78
2024/04/02 09:27:54;;;;;;;7.80;7.00;;;;;;;10.10;100.00;97667.11;109455;1253;66562;-78
2024/04/02 09:30:22;;;;;;;7.40;6.70;;;;;;;10.15;100.00;97667.91;109496;1252;60804;-78
2024/04/02 09:32:50;;;;;;;7.70;6.90;;;;;;;10.19;100.00;97672.73;109467;1253;64091;-79
2024/04/02 09:35:48;;;;;;;6.30;5.70;;;;;;;10.27;100.00;97673.29;108951;1256;60143;-77
2024/04/02 09:38:17;;;;;;;6.60;5.00;;;;;;;10.35;100.00;97680.29;108719;1264;60271;-79
2024/04/02 09:40:44;;;;;;;4.20;3.80;;;;;;;10.36;100.00;97681.94;108701;1264;67097;-78
2024/04/02 09:43:13;;;;;;;4.80;4.40;;;;;;;10.35;100.00;97680.06;108605;1263;60320;-79
2024/04/02 09:45:39;;;;;;;5.20;4.00;;;;;;;10.33;100.00;97685.41;108603;1264;64095;-77
2024/04/02 09:48:07;;;;;;;4.50;4.20;;;;;;;10.34;100.00;97684.23;108547;1264;59860;-77
2024/04/02 09:50:36;;;;;;;5.80;4.30;;;;;;;10.37;100.00;97685.20;108583;1264;60136;-77
2024/04/02 09:53:04;;;;;;;4.70;4.10;;;;;;;10.37;100.00;97688.25;108597;1263;65392;-77
2024/04/02 09:55:33;;;;;;;4.40;3.40;;;;;;;10.36;100.00;97695.60;108688;1263;60618;-78
2024/04/02 09:58:01;;;;;;;4.90;4.30;;;;;;;10.35;100.00;97699.96;108670;1264;65299;-76
2024/04/02 10:00:32;;;;;;;3.50;3.20;;;;;;;10.35;100.00;97700.84;108659;1264;59829;-79
2024/04/02 10:03:01;;;;;;;4.50;4.10;;;;;;;10.30;100.00;97701.25;108699;1264;60092;-78
2024/04/02 10:05:28;;;;;;;4.00;3.50;;;;;;;10.24;100.00;97701.36;108733;1259;68039;-76
2024/04/02 10:07:54;;;;;;;4.40;3.80;;;;;;;10.21;100.00;97710.34;108882;1264;60177;-77
2024/04/02 10:10:28;;;;;;;7.10;3.50;;;;;;;10.22;100.00;97708.16;108856;1259;64138;-77
2024/04/02 10:12:55;;;;;;;4.70;4.20;;;;;;;10.25;100.00;97706.09;108816;1259;59954;-78
2024/04/02 10:15:22;;;;;;;4.20;3.90;;;;;;;10.27;100.00;97709.52;109136;1253;59764;-82
2024/04/02 10:17:57;;;;;;;4.10;3.10;;;;;;;10.25;100.00;97710.05;109538;1253;65491;-77
2024/04/02 10:20:32;;;;;;;4.40;3.40;;;;;;;10.19;100.00;97714.95;109478;1253;60222;-76
2024/04/02 10:23:00;;;;;;;4.10;3.70;;;;;;;10.09;100.00;97717.73;109135;1253;64129;-73
2024/04/02 10:25:31;;;;;;;3.50;3.20;;;;;;;9.99;100.00;97717.89;109438;1256;59923;-82
2024/04/02 10:28:03;;;;;;;3.40;2.90;;;;;;;9.90;100.00;97720.80;109085;1258;59862;-83
2024/04/02 10:30:29;;;;;;;3.40;3.20;;;;;;;9.86;100.00;97721.14;108940;1256;66544;-76
2024/04/02 10:32:56;;;;;;;4.10;3.80;;;;;;;9.88;100.00;97721.16;109042;1256;60705;-74
2024/04/02 10:35:25;;;;;;;3.80;3.50;;;;;;;9.91;100.00;97725.83;109064;1261;64128;-77
2024/04/02 10:37:55;;;;;;;5.00;3.80;;;;;;;9.92;100.00;97727.91;108900;1256;60019;-79
2024/04/02 10:40:21;;;;;;;4.10;3.80;;;;;;;9.86;100.00;97725.95;109036;1261;59903;-73
2024/04/02 10:42:49;;;;;;;5.60;4.50;;;;;;;9.79;100.00;97728.82;108832;1260;65670;-71
2024/04/02 10:45:16;;;;;;;5.30;4.80;;;;;;;9.76;100.00;97736.19;108763;1260;60186;-75
2024/04/02 10:47:45;;;;;;;5.10;4.60;;;;;;;9.79;100.00;97737.36;108779;1260;63141;-76
2024/04/02 10:50:15;;;;;;;5.00;4.60;;;;;;;9.83;100.00;97739.30;108843;1260;59867;-76
2024/04/02 10:52:42;;;;;;;5.20;4.80;;;;;;;9.85;100.00;97746.71;108843;1260;60093;-78
2024/04/02 10:55:09;;;;;;;6.40;5.80;;;;;;;9.84;100.00;97748.47;108854;1260;65431;-77
2024/04/02 10:57:37;;;;;;;5.50;4.60;;;;;;;9.79;100.00;97746.36;108878;1260;59898;-77
2024/04/02 11:00:07;;;;;;;5.70;5.20;;;;;;;9.77;100.00;97748.48;109065;1256;64110;-76
2024/04/02 11:02:35;;;;;;;5.30;4.90;;;;;;;9.78;100.00;97748.95;108855;1256;59873;-76
2024/04/02 11:05:03;;;;;;;7.40;6.20;;;;;;;9.78;100.00;97751.77;109053;1260;59841;-75
2024/04/02 11:07:30;;;;;;;5.30;4.70;;;;;;;9.76;100.00;97756.02;109042;1258;66950;-79
2024/04/02 11:09:56;;;;;;;5.40;4.90;;;;;;;9.78;100.00;97761.31;108969;1256;60148;-78
2024/04/02 11:12:24;;;;;;;5.30;4.80;;;;;;;9.79;100.00;97762.85;108762;1257;65590;-80
2024/04/02 11:14:54;;;;;;;5.80;4.90;;;;;;;9.80;100.00;97767.04;109429;1254;59858;-81
2024/04/02 11:17:22;;;;;;;6.30;5.10;;;;;;;9.82;100.00;97770.41;109506;1254;59634;-79
2024/04/02 11:19:49;;;;;;;6.00;5.40;;;;;;;9.82;100.00;97790.14;109517;1253;66827;-79
2024/04/02 11:25:14;;;;;;;7.70;7.00;;;;;;;9.79;100.00;97784.39;109451;1253;63991;-73